Weather forecast for Pikuj

Ukraine, 966 m
N48.830, E23.005


Sounding

Red line — air temperature ˚C.
Blue line — thermal bubble temperature ˚C.
Green line — dew point temperature ˚C.
Wind speed is in meters per second.

Table forecast

GFS 0.25˚ model

temp. wind gust humid. clouds prec. press. hpbl
Thu26 00:00 12 184.0 s 2 7 98 56 2.9 1011 189
03:00 11 158.0 sse 2 2 99 56 4.8 1012 59
06:00 10 84.0 e 1 1 99 36 1.1 1012 22
09:00 13 165.0 sse 1 2 94 53 2.1 1013 236
12:00 19 188.0 s 1 2 69 64 0.8 1012 905
15:00 18 294.0 wnw 2 3 60 60 1.8 1012 1217
18:00 15 346.0 nnw 3 4 63 76 0.0 1013 845
21:00 12 360.0 n 2 3 84 82 0.0 1014 89
 
Fri27 00:00 10 353.0 n 2 4 89 96 0.1 1015 150
03:00 8 3.0 n 2 6 86 98 0.1 1017 410
06:00 5 28.0 nne 2 3 91 63 0.0 1019 57
09:00 9 36.0 ne 2 4 65 43 0.0 1019 641
12:00 15 360.0 n 1 2 41 7 0.0 1019 1389
15:00 18 281.0 w 1 1 34 27 0.0 1019 1953
18:00 15 249.0 wsw 2 2 39 61 0.0 1018 1254
21:00 8 43.0 ne 1 1 70 48 0.0 1019 22
 
Sat28 00:00 6 68.0 ene 1 2 81 2 0.0 1020 22
03:00 5 91.0 e 1 2 82 5 0.0 1020 22
06:00 6 100.0 e 1 2 71 5 0.0 1019 22
09:00 13 162.0 sse 1 3 54 2 0.0 1019 199
12:00 18 198.0 ssw 3 5 49 18 0.0 1018 946
15:00 20 196.0 ssw 3 5 50 16 0.0 1017 1176
18:00 19 193.0 ssw 3 5 59 0 0.0 1016 1044
21:00 12 137.0 se 1 2 92 0 0.0 1017 23
 
Sun29 00:00 11 108.0 ese 1 2 91 21 0.0 1017 23
03:00 12 105.0 ese 2 2 86 60 0.0 1017 23
06:00 11 143.0 se 1 2 88 100 0.0 1017 22
09:00 17 162.0 sse 2 4 66 70 0.0 1017 287
12:00 21 190.0 s 3 4 52 19 0.0 1016 1031
15:00 23 200.0 ssw 3 4 47 15 0.0 1015 1475
18:00 22 202.0 ssw 2 4 54 0 0.0 1013 1082
21:00 14 145.0 se 1 1 87 0 0.0 1013 23
 
Mon30 00:00 13 94.0 e 2 2 84 50 0.0 1014 23
03:00 12 157.0 sse 2 2 73 28 0.0 1013 24
06:00 10 149.0 sse 1 2 77 0 0.0 1013 23
09:00 16 178.0 s 2 4 55 0 0.0 1013 285
12:00 20 195.0 ssw 3 5 41 25 0.0 1013 887
15:00 22 200.0 ssw 4 6 45 18 0.0 1012 1349
18:00 20 205.0 ssw 3 6 55 0 0.0 1011 1354
21:00 15 197.0 ssw 1 2 82 17 0.0 1012 24
 

0.008 s